sensor_id;sensor_type;location;lat;lon;timestamp;pressure;altitude;pressure_sealevel;temperature;humidity
35892;BME280;21993;42.672;23.296;2023-05-07T00:01:40;94946.66;;;14.77;63.10
35892;BME280;21993;42.672;23.296;2023-05-07T00:04:06;94944.13;;;14.67;63.31
35892;BME280;21993;42.672;23.296;2023-05-07T00:06:32;94942.63;;;14.64;63.51
35892;BME280;21993;42.672;23.296;2023-05-07T00:08:58;94948.53;;;14.58;63.71
35892;BME280;21993;42.672;23.296;2023-05-07T00:11:24;94941.28;;;14.60;63.90
35892;BME280;21993;42.672;23.296;2023-05-07T00:13:50;94947.16;;;14.54;63.65
35892;BME280;21993;42.672;23.296;2023-05-07T00:16:16;94944.53;;;14.54;63.55
35892;BME280;21993;42.672;23.296;2023-05-07T00:18:41;94941.22;;;14.52;63.60
35892;BME280;21993;42.672;23.296;2023-05-07T00:21:07;94934.44;;;14.50;63.87
35892;BME280;21993;42.672;23.296;2023-05-07T00:23:32;94932.53;;;14.42;64.36
35892;BME280;21993;42.672;23.296;2023-05-07T00:25:58;94934.78;;;14.37;64.15
35892;BME280;21993;42.672;23.296;2023-05-07T00:28:23;94930.97;;;14.31;64.13
35892;BME280;21993;42.672;23.296;2023-05-07T00:30:48;94933.28;;;14.34;64.10
35892;BME280;21993;42.672;23.296;2023-05-07T00:33:14;94931.63;;;14.33;64.14
35892;BME280;21993;42.672;23.296;2023-05-07T00:35:39;94938.22;;;14.29;64.29
35892;BME280;21993;42.672;23.296;2023-05-07T00:38:05;94942.78;;;14.27;64.54
35892;BME280;21993;42.672;23.296;2023-05-07T00:40:30;94940.31;;;14.26;64.43
35892;BME280;21993;42.672;23.296;2023-05-07T00:42:55;94940.31;;;14.26;64.37
35892;BME280;21993;42.672;23.296;2023-05-07T00:45:26;94935.50;;;14.21;64.59
35892;BME280;21993;42.672;23.296;2023-05-07T00:47:57;94944.09;;;14.23;65.11
35892;BME280;21993;42.672;23.296;2023-05-07T00:50:23;94944.38;;;14.20;65.09
35892;BME280;21993;42.672;23.296;2023-05-07T00:52:49;94943.19;;;14.15;65.27
35892;BME280;21993;42.672;23.296;2023-05-07T00:55:14;94949.50;;;14.04;65.56
35892;BME280;21993;42.672;23.296;2023-05-07T00:57:41;94946.88;;;14.04;65.50
35892;BME280;21993;42.672;23.296;2023-05-07T01:00:08;94939.81;;;14.04;65.23
35892;BME280;21993;42.672;23.296;2023-05-07T01:02:35;94948.59;;;13.95;65.43
35892;BME280;21993;42.672;23.296;2023-05-07T01:05:01;94948.25;;;13.90;65.95
35892;BME280;21993;42.672;23.296;2023-05-07T01:07:29;94938.69;;;13.89;65.97
35892;BME280;21993;42.672;23.296;2023-05-07T01:09:56;94946.28;;;13.92;66.14
35892;BME280;21993;42.672;23.296;2023-05-07T01:12:22;94947.41;;;13.90;66.40
35892;BME280;21993;42.672;23.296;2023-05-07T01:14:48;94940.91;;;13.84;65.81
35892;BME280;21993;42.672;23.296;2023-05-07T01:17:15;94951.84;;;13.71;65.93
35892;BME280;21993;42.672;23.296;2023-05-07T01:19:41;94957.72;;;13.65;66.55
35892;BME280;21993;42.672;23.296;2023-05-07T01:22:09;94958.63;;;13.74;66.51
35892;BME280;21993;42.672;23.296;2023-05-07T01:24:37;94950.41;;;13.77;66.52
35892;BME280;21993;42.672;23.296;2023-05-07T01:27:03;94952.13;;;13.68;66.87
35892;BME280;21993;42.672;23.296;2023-05-07T01:29:28;94953.13;;;13.67;67.07
35892;BME280;21993;42.672;23.296;2023-05-07T01:31:57;94945.88;;;13.69;66.84
35892;BME280;21993;42.672;23.296;2023-05-07T01:34:25;94952.03;;;13.60;66.90
35892;BME280;21993;42.672;23.296;2023-05-07T01:36:53;94945.09;;;13.59;66.55
35892;BME280;21993;42.672;23.296;2023-05-07T01:39:19;94944.13;;;13.60;67.08
35892;BME280;21993;42.672;23.296;2023-05-07T01:41:44;94941.78;;;13.57;66.85
35892;BME280;21993;42.672;23.296;2023-05-07T01:44:12;94932.81;;;13.50;67.36
35892;BME280;21993;42.672;23.296;2023-05-07T01:46:38;94938.38;;;13.47;67.38
35892;BME280;21993;42.672;23.296;2023-05-07T01:49:03;94930.66;;;13.36;67.38
35892;BME280;21993;42.672;23.296;2023-05-07T01:51:29;94928.03;;;13.36;67.07
35892;BME280;21993;42.672;23.296;2023-05-07T01:53:55;94921.25;;;13.33;67.42
35892;BME280;21993;42.672;23.296;2023-05-07T01:56:21;94922.75;;;13.36;67.65
35892;BME280;21993;42.672;23.296;2023-05-07T01:58:46;94915.97;;;13.33;67.39
35892;BME280;21993;42.672;23.296;2023-05-07T02:01:13;94911.84;;;13.31;67.58
35892;BME280;21993;42.672;23.296;2023-05-07T02:03:39;94908.78;;;13.26;67.78
35892;BME280;21993;42.672;23.296;2023-05-07T02:06:04;94921.56;;;13.30;67.82
35892;BME280;21993;42.672;23.296;2023-05-07T02:08:30;94903.09;;;13.30;67.64
35892;BME280;21993;42.672;23.296;2023-05-07T02:10:56;94906.16;;;13.26;67.33
35892;BME280;21993;42.672;23.296;2023-05-07T02:13:21;94904.09;;;13.19;67.72
35892;BME280;21993;42.672;23.296;2023-05-07T02:15:47;94903.81;;;13.22;67.46
35892;BME280;21993;42.672;23.296;2023-05-07T02:18:16;94915.59;;;13.18;67.54
35892;BME280;21993;42.672;23.296;2023-05-07T02:20:42;94901.34;;;13.21;67.77
35892;BME280;21993;42.672;23.296;2023-05-07T02:23:07;94908.97;;;13.14;67.97
35892;BME280;21993;42.672;23.296;2023-05-07T02:25:33;94901.06;;;13.14;67.60
35892;BME280;21993;42.672;23.296;2023-05-07T02:27:58;94912.47;;;13.05;67.59
35892;BME280;21993;42.672;23.296;2023-05-07T02:30:24;94904.28;;;13.08;67.70
35892;BME280;21993;42.672;23.296;2023-05-07T02:32:50;94902.31;;;13.10;67.21
35892;BME280;21993;42.672;23.296;2023-05-07T02:35:15;94901.50;;;13.10;67.30
35892;BME280;21993;42.672;23.296;2023-05-07T02:37:41;94908.72;;;13.08;66.87
35892;BME280;21993;42.672;23.296;2023-05-07T02:40:07;94910.94;;;13.03;66.89
35892;BME280;21993;42.672;23.296;2023-05-07T02:42:32;94908.63;;;13.00;66.65
35892;BME280;21993;42.672;23.296;2023-05-07T02:44:57;94904.47;;;12.97;66.85
35892;BME280;21993;42.672;23.296;2023-05-07T02:47:23;94912.94;;;12.91;67.54
35892;BME280;21993;42.672;23.296;2023-05-07T02:49:48;94912.41;;;12.87;67.57
35892;BME280;21993;42.672;23.296;2023-05-07T02:52:14;94911.69;;;12.95;67.37
35892;BME280;21993;42.672;23.296;2023-05-07T02:54:39;94913.63;;;12.93;67.17
35892;BME280;21993;42.672;23.296;2023-05-07T02:57:04;94916.72;;;12.88;67.34
35892;BME280;21993;42.672;23.296;2023-05-07T02:59:30;94909.06;;;12.85;67.50
35892;BME280;21993;42.672;23.296;2023-05-07T03:01:55;94929.47;;;12.83;67.72
35892;BME280;21993;42.672;23.296;2023-05-07T03:04:21;94920.84;;;12.91;67.49
35892;BME280;21993;42.672;23.296;2023-05-07T03:06:46;94918.53;;;12.88;67.27
35892;BME280;21993;42.672;23.296;2023-05-07T03:09:11;94915.88;;;12.88;67.21
35892;BME280;21993;42.672;23.296;2023-05-07T03:11:37;94931.97;;;12.85;67.12
35892;BME280;21993;42.672;23.296;2023-05-07T03:14:02;94941.97;;;12.81;67.53
35892;BME280;21993;42.672;23.296;2023-05-07T03:16:28;94942.97;;;12.71;67.28
35892;BME280;21993;42.672;23.296;2023-05-07T03:18:53;94935.47;;;12.76;67.47
35892;BME280;21993;42.672;23.296;2023-05-07T03:21:19;94937.13;;;12.77;67.30
35892;BME280;21993;42.672;23.296;2023-05-07T03:23:44;94938.66;;;12.79;67.24
35892;BME280;21993;42.672;23.296;2023-05-07T03:26:10;94940.19;;;12.72;67.66
35892;BME280;21993;42.672;23.296;2023-05-07T03:28:36;94934.25;;;12.70;67.54
35892;BME280;21993;42.672;23.296;2023-05-07T03:31:02;94945.63;;;12.71;67.42
35892;BME280;21993;42.672;23.296;2023-05-07T03:33:27;94940.59;;;12.67;68.08
35892;BME280;21993;42.672;23.296;2023-05-07T03:35:53;94939.94;;;12.65;67.56
35892;BME280;21993;42.672;23.296;2023-05-07T03:38:18;94946.03;;;12.66;67.72
35892;BME280;21993;42.672;23.296;2023-05-07T03:40:43;94945.50;;;12.62;67.99
35892;BME280;21993;42.672;23.296;2023-05-07T03:43:09;94947.72;;;12.57;67.90
35892;BME280;21993;42.672;23.296;2023-05-07T03:45:34;94950.22;;;12.49;68.19
35892;BME280;21993;42.672;23.296;2023-05-07T03:48:00;94953.94;;;12.56;68.32
35892;BME280;21993;42.672;23.296;2023-05-07T03:50:25;94950.91;;;12.51;68.52
35892;BME280;21993;42.672;23.296;2023-05-07T03:52:51;94949.09;;;12.52;69.11
35892;BME280;21993;42.672;23.296;2023-05-07T03:55:16;94950.91;;;12.51;69.15
35892;BME280;21993;42.672;23.296;2023-05-07T03:57:42;94962.00;;;12.55;68.71
35892;BME280;21993;42.672;23.296;2023-05-07T04:00:07;94960.72;;;12.59;68.68
35892;BME280;21993;42.672;23.296;2023-05-07T04:02:33;94959.75;;;12.60;68.36
35892;BME280;21993;42.672;23.296;2023-05-07T04:04:59;94960.47;;;12.62;68.33
35892;BME280;21993;42.672;23.296;2023-05-07T04:07:24;94971.41;;;12.57;68.46
35892;BME280;21993;42.672;23.296;2023-05-07T04:09:49;94979.31;;;12.57;68.76
35892;BME280;21993;42.672;23.296;2023-05-07T04:12:15;94989.31;;;12.54;69.35
35892;BME280;21993;42.672;23.296;2023-05-07T04:14:40;94989.69;;;12.59;68.99
35892;BME280;21993;42.672;23.296;2023-05-07T04:17:05;94995.94;;;12.58;68.77
35892;BME280;21993;42.672;23.296;2023-05-07T04:19:33;94987.19;;;12.67;68.66
35892;BME280;21993;42.672;23.296;2023-05-07T04:21:58;94990.81;;;12.66;68.42
35892;BME280;21993;42.672;23.296;2023-05-07T04:24:24;94997.19;;;12.63;68.48
35892;BME280;21993;42.672;23.296;2023-05-07T04:26:49;94996.22;;;12.64;69.06
35892;BME280;21993;42.672;23.296;2023-05-07T04:29:16;94999.13;;;12.52;69.09
35892;BME280;21993;42.672;23.296;2023-05-07T04:31:42;95006.06;;;12.62;68.93
35892;BME280;21993;42.672;23.296;2023-05-07T04:34:12;95005.25;;;12.62;69.24
35892;BME280;21993;42.672;23.296;2023-05-07T04:36:38;95003.69;;;12.79;68.61
35892;BME280;21993;42.672;23.296;2023-05-07T04:39:04;95015.06;;;12.70;69.01
35892;BME280;21993;42.672;23.296;2023-05-07T04:41:29;95016.31;;;12.65;69.34
35892;BME280;21993;42.672;23.296;2023-05-07T04:43:55;95009.50;;;12.73;69.39
35892;BME280;21993;42.672;23.296;2023-05-07T04:46:22;95014.22;;;12.79;69.60
35892;BME280;21993;42.672;23.296;2023-05-07T04:48:47;95007.81;;;12.91;69.01
35892;BME280;21993;42.672;23.296;2023-05-07T04:51:12;95016.97;;;12.87;68.91
35892;BME280;21993;42.672;23.296;2023-05-07T04:53:38;95013.88;;;13.01;69.03
35892;BME280;21993;42.672;23.296;2023-05-07T04:56:04;95017.47;;;13.10;68.09
35892;BME280;21993;42.672;23.296;2023-05-07T04:58:30;95016.75;;;13.17;67.95
35892;BME280;21993;42.672;23.296;2023-05-07T05:00:57;95012.44;;;13.16;68.74
35892;BME280;21993;42.672;23.296;2023-05-07T05:03:23;95011.47;;;13.17;68.27
35892;BME280;21993;42.672;23.296;2023-05-07T05:05:49;95011.09;;;13.22;68.33
35892;BME280;21993;42.672;23.296;2023-05-07T05:08:14;95009.28;;;13.22;68.04
35892;BME280;21993;42.672;23.296;2023-05-07T05:10:40;95006.16;;;13.37;67.65
35892;BME280;21993;42.672;23.296;2023-05-07T05:13:07;95005.81;;;13.49;67.57
35892;BME280;21993;42.672;23.296;2023-05-07T05:15:33;95005.31;;;13.46;67.42
35892;BME280;21993;42.672;23.296;2023-05-07T05:17:58;94997.38;;;13.46;67.67
35892;BME280;21993;42.672;23.296;2023-05-07T05:20:24;94995.28;;;13.49;67.67
35892;BME280;21993;42.672;23.296;2023-05-07T05:22:49;94993.66;;;13.66;67.54
35892;BME280;21993;42.672;23.296;2023-05-07T05:25:15;95002.88;;;13.62;67.17
35892;BME280;21993;42.672;23.296;2023-05-07T05:27:40;95003.34;;;13.75;66.91
35892;BME280;21993;42.672;23.296;2023-05-07T05:30:06;95011.94;;;13.95;66.55
35892;BME280;21993;42.672;23.296;2023-05-07T05:32:32;95005.09;;;14.02;66.57
35892;BME280;21993;42.672;23.296;2023-05-07T05:34:57;95016.22;;;14.06;66.45
35892;BME280;21993;42.672;23.296;2023-05-07T05:37:23;95007.47;;;14.23;66.07
35892;BME280;21993;42.672;23.296;2023-05-07T05:39:48;95010.88;;;14.33;64.86
35892;BME280;21993;42.672;23.296;2023-05-07T05:42:13;95008.13;;;14.43;65.25
35892;BME280;21993;42.672;23.296;2023-05-07T05:44:39;95009.66;;;14.46;64.97
35892;BME280;21993;42.672;23.296;2023-05-07T05:47:04;95013.38;;;14.53;64.97
35892;BME280;21993;42.672;23.296;2023-05-07T05:49:30;95007.56;;;14.49;65.53
35892;BME280;21993;42.672;23.296;2023-05-07T05:51:55;94999.00;;;14.73;64.43
35892;BME280;21993;42.672;23.296;2023-05-07T05:54:21;94999.25;;;14.88;64.19
35892;BME280;21993;42.672;23.296;2023-05-07T05:56:46;95001.31;;;14.94;63.93
35892;BME280;21993;42.672;23.296;2023-05-07T05:59:12;95007.84;;;15.08;63.61
35892;BME280;21993;42.672;23.296;2023-05-07T06:01:38;95013.22;;;15.24;62.64
35892;BME280;21993;42.672;23.296;2023-05-07T06:04:04;95013.75;;;15.28;62.75
35892;BME280;21993;42.672;23.296;2023-05-07T06:06:29;95004.97;;;15.27;62.67
35892;BME280;21993;42.672;23.296;2023-05-07T06:08:56;95010.69;;;15.40;61.83
35892;BME280;21993;42.672;23.296;2023-05-07T06:11:22;95009.59;;;15.59;60.92
35892;BME280;21993;42.672;23.296;2023-05-07T06:13:47;95006.59;;;15.54;61.43
35892;BME280;21993;42.672;23.296;2023-05-07T06:16:14;95000.63;;;15.52;61.93
35892;BME280;21993;42.672;23.296;2023-05-07T06:18:40;95000.41;;;15.71;61.85
35892;BME280;21993;42.672;23.296;2023-05-07T06:21:05;95000.31;;;15.81;61.17
35892;BME280;21993;42.672;23.296;2023-05-07T06:23:31;95000.56;;;15.70;61.95
35892;BME280;21993;42.672;23.296;2023-05-07T06:25:56;95004.75;;;15.72;62.85
35892;BME280;21993;42.672;23.296;2023-05-07T06:28:21;95000.34;;;15.89;61.33
35892;BME280;21993;42.672;23.296;2023-05-07T06:30:47;94989.78;;;16.14;60.86
35892;BME280;21993;42.672;23.296;2023-05-07T06:33:14;94986.50;;;16.36;59.20
35892;BME280;21993;42.672;23.296;2023-05-07T06:35:39;94985.34;;;16.39;58.86
35892;BME280;21993;42.672;23.296;2023-05-07T06:38:04;94983.22;;;16.50;59.45
35892;BME280;21993;42.672;23.296;2023-05-07T06:40:30;94988.00;;;16.47;59.51
35892;BME280;21993;42.672;23.296;2023-05-07T06:42:55;94982.41;;;16.66;58.63
35892;BME280;21993;42.672;23.296;2023-05-07T06:45:21;94974.09;;;16.53;59.78
35892;BME280;21993;42.672;23.296;2023-05-07T06:47:46;94984.34;;;16.56;59.93
35892;BME280;21993;42.672;23.296;2023-05-07T06:50:11;94969.13;;;16.66;59.29
35892;BME280;21993;42.672;23.296;2023-05-07T06:52:37;94969.47;;;16.79;58.27
35892;BME280;21993;42.672;23.296;2023-05-07T06:55:02;94967.00;;;16.86;58.09
35892;BME280;21993;42.672;23.296;2023-05-07T06:57:28;94967.97;;;16.93;58.72
35892;BME280;21993;42.672;23.296;2023-05-07T06:59:53;94956.84;;;17.06;58.30
35892;BME280;21993;42.672;23.296;2023-05-07T07:02:19;94969.94;;;17.15;58.23
35892;BME280;21993;42.672;23.296;2023-05-07T07:04:44;94965.22;;;17.42;57.48
35892;BME280;21993;42.672;23.296;2023-05-07T07:07:10;94960.72;;;17.42;58.21
35892;BME280;21993;42.672;23.296;2023-05-07T07:09:35;94959.47;;;17.69;57.07
35892;BME280;21993;42.672;23.296;2023-05-07T07:12:01;94959.97;;;17.73;56.65
35892;BME280;21993;42.672;23.296;2023-05-07T07:14:26;94956.78;;;17.78;57.01
35892;BME280;21993;42.672;23.296;2023-05-07T07:16:51;94960.19;;;17.94;56.34
35892;BME280;21993;42.672;23.296;2023-05-07T07:19:17;94954.53;;;17.97;56.57
35892;BME280;21993;42.672;23.296;2023-05-07T07:21:42;94962.31;;;17.99;56.07
35892;BME280;21993;42.672;23.296;2023-05-07T07:24:08;94962.13;;;18.09;56.33
35892;BME280;21993;42.672;23.296;2023-05-07T07:26:33;94951.91;;;18.20;56.20
35892;BME280;21993;42.672;23.296;2023-05-07T07:28:59;94943.03;;;18.51;54.30
35892;BME280;21993;42.672;23.296;2023-05-07T07:31:24;94946.34;;;18.53;54.72
35892;BME280;21993;42.672;23.296;2023-05-07T07:33:50;94945.91;;;18.64;54.02
35892;BME280;21993;42.672;23.296;2023-05-07T07:36:15;94948.66;;;18.79;52.29
35892;BME280;21993;42.672;23.296;2023-05-07T07:38:41;94947.53;;;18.73;53.25
35892;BME280;21993;42.672;23.296;2023-05-07T07:41:08;94958.72;;;18.69;54.32
35892;BME280;21993;42.672;23.296;2023-05-07T07:43:34;94956.00;;;18.92;52.85
35892;BME280;21993;42.672;23.296;2023-05-07T07:46:01;94954.75;;;19.02;52.36
35892;BME280;21993;42.672;23.296;2023-05-07T07:48:26;94950.78;;;18.98;53.27
35892;BME280;21993;42.672;23.296;2023-05-07T07:50:51;94961.72;;;19.03;53.71
35892;BME280;21993;42.672;23.296;2023-05-07T07:53:17;94967.72;;;19.20;52.29
35892;BME280;21993;42.672;23.296;2023-05-07T07:55:42;94959.47;;;19.30;51.09
35892;BME280;21993;42.672;23.296;2023-05-07T07:58:08;94962.03;;;19.38;52.30
35892;BME280;21993;42.672;23.296;2023-05-07T08:00:33;94953.84;;;19.39;51.43
35892;BME280;21993;42.672;23.296;2023-05-07T08:02:58;94949.34;;;19.40;52.33
35892;BME280;21993;42.672;23.296;2023-05-07T08:05:24;94952.94;;;19.47;53.63
35892;BME280;21993;42.672;23.296;2023-05-07T08:07:50;94953.59;;;19.64;51.51
35892;BME280;21993;42.672;23.296;2023-05-07T08:10:17;94948.75;;;19.67;52.09
35892;BME280;21993;42.672;23.296;2023-05-07T08:12:50;94954.72;;;19.70;52.22
35892;BME280;21993;42.672;23.296;2023-05-07T08:15:15;94952.78;;;19.78;51.54
35892;BME280;21993;42.672;23.296;2023-05-07T08:17:41;94950.53;;;19.96;49.86
35892;BME280;21993;42.672;23.296;2023-05-07T08:20:07;94946.94;;;19.89;50.81
35892;BME280;21993;42.672;23.296;2023-05-07T08:22:34;94949.66;;;20.11;49.51
35892;BME280;21993;42.672;23.296;2023-05-07T08:24:59;94948.66;;;20.12;49.17
35892;BME280;21993;42.672;23.296;2023-05-07T08:27:25;94950.75;;;20.16;49.05
35892;BME280;21993;42.672;23.296;2023-05-07T08:29:51;94944.22;;;20.19;49.05
35892;BME280;21993;42.672;23.296;2023-05-07T08:32:16;94954.19;;;20.32;48.23
35892;BME280;21993;42.672;23.296;2023-05-07T08:34:41;94941.59;;;20.25;48.41
35892;BME280;21993;42.672;23.296;2023-05-07T08:37:07;94937.28;;;20.24;49.36
35892;BME280;21993;42.672;23.296;2023-05-07T08:39:32;94930.47;;;20.37;48.62
35892;BME280;21993;42.672;23.296;2023-05-07T08:42:00;94931.09;;;20.39;48.85
35892;BME280;21993;42.672;23.296;2023-05-07T08:44:28;94933.47;;;20.48;47.50
35892;BME280;21993;42.672;23.296;2023-05-07T08:46:58;94935.88;;;20.65;47.54
35892;BME280;21993;42.672;23.296;2023-05-07T08:49:25;94933.06;;;20.73;47.43
35892;BME280;21993;42.672;23.296;2023-05-07T08:51:51;94930.22;;;21.02;45.09
35892;BME280;21993;42.672;23.296;2023-05-07T08:54:18;94926.34;;;21.05;45.28
35892;BME280;21993;42.672;23.296;2023-05-07T08:56:45;94919.41;;;21.11;45.07
35892;BME280;21993;42.672;23.296;2023-05-07T08:59:10;94916.94;;;21.44;43.34
35892;BME280;21993;42.672;23.296;2023-05-07T09:01:35;94914.00;;;21.32;44.13
35892;BME280;21993;42.672;23.296;2023-05-07T09:04:01;94919.47;;;21.24;44.65
35892;BME280;21993;42.672;23.296;2023-05-07T09:06:27;94912.63;;;21.36;45.23
35892;BME280;21993;42.672;23.296;2023-05-07T09:08:53;94903.16;;;21.40;45.03
35892;BME280;21993;42.672;23.296;2023-05-07T09:11:22;94905.25;;;21.45;44.76
35892;BME280;21993;42.672;23.296;2023-05-07T09:13:52;94902.44;;;21.59;43.35
35892;BME280;21993;42.672;23.296;2023-05-07T09:16:20;94899.63;;;21.74;42.90
35892;BME280;21993;42.672;23.296;2023-05-07T09:18:46;94894.91;;;21.70;43.83
35892;BME280;21993;42.672;23.296;2023-05-07T09:21:16;94896.53;;;21.71;43.57
35892;BME280;21993;42.672;23.296;2023-05-07T09:23:42;94890.19;;;21.85;43.35
35892;BME280;21993;42.672;23.296;2023-05-07T09:26:08;94889.81;;;21.88;43.24
35892;BME280;21993;42.672;23.296;2023-05-07T09:28:40;94893.81;;;22.18;42.03
35892;BME280;21993;42.672;23.296;2023-05-07T09:31:08;94890.53;;;22.16;41.91
35892;BME280;21993;42.672;23.296;2023-05-07T09:33:33;94884.38;;;22.23;42.15
35892;BME280;21993;42.672;23.296;2023-05-07T09:36:02;94885.03;;;22.38;41.69
35892;BME280;21993;42.672;23.296;2023-05-07T09:38:28;94869.16;;;22.36;41.28
35892;BME280;21993;42.672;23.296;2023-05-07T09:41:03;94871.03;;;22.42;40.72
35892;BME280;21993;42.672;23.296;2023-05-07T09:43:32;94879.06;;;22.42;41.09
35892;BME280;21993;42.672;23.296;2023-05-07T09:46:24;94868.97;;;22.44;41.35
35892;BME280;21993;42.672;23.296;2023-05-07T09:48:50;94872.69;;;22.63;39.00
35892;BME280;21993;42.672;23.296;2023-05-07T09:51:39;94860.53;;;22.67;39.74
35892;BME280;21993;42.672;23.296;2023-05-07T09:54:06;94862.00;;;22.63;40.46
35892;BME280;21993;42.672;23.296;2023-05-07T09:56:32;94866.31;;;22.71;40.58
35892;BME280;21993;42.672;23.296;2023-05-07T09:59:02;94860.53;;;23.14;38.61
35892;BME280;21993;42.672;23.296;2023-05-07T10:01:30;94862.13;;;23.28;38.55
35892;BME280;21993;42.672;23.296;2023-05-07T10:03:57;94856.56;;;23.29;37.84
35892;BME280;21993;42.672;23.296;2023-05-07T10:06:25;94865.22;;;23.38;37.29
35892;BME280;21993;42.672;23.296;2023-05-07T10:08:53;94864.19;;;23.26;38.24
35892;BME280;21993;42.672;23.296;2023-05-07T10:11:20;94857.34;;;23.37;38.62
35892;BME280;21993;42.672;23.296;2023-05-07T10:13:47;94849.28;;;23.50;36.55
35892;BME280;21993;42.672;23.296;2023-05-07T10:16:14;94847.03;;;23.47;37.33
35892;BME280;21993;42.672;23.296;2023-05-07T10:18:40;94851.38;;;23.41;37.68
35892;BME280;21993;42.672;23.296;2023-05-07T10:21:16;94842.91;;;23.44;36.84
35892;BME280;21993;42.672;23.296;2023-05-07T10:23:45;94844.34;;;23.47;37.48
35892;BME280;21993;42.672;23.296;2023-05-07T10:26:14;94847.03;;;23.47;38.46
35892;BME280;21993;42.672;23.296;2023-05-07T10:28:43;94840.41;;;23.56;37.67
35892;BME280;21993;42.672;23.296;2023-05-07T10:34:09;94835.88;;;23.63;36.61
35892;BME280;21993;42.672;23.296;2023-05-07T10:36:36;94833.13;;;23.70;36.37
35892;BME280;21993;42.672;23.296;2023-05-07T10:39:02;94827.84;;;23.63;36.48
35892;BME280;21993;42.672;23.296;2023-05-07T10:41:27;94830.13;;;23.46;36.42
35892;BME280;21993;42.672;23.296;2023-05-07T10:43:53;94825.16;;;23.50;36.57
35892;BME280;21993;42.672;23.296;2023-05-07T10:46:20;94825.78;;;23.52;37.25
35892;BME280;21993;42.672;23.296;2023-05-07T10:51:31;94820.19;;;23.67;37.57
35892;BME280;21993;42.672;23.296;2023-05-07T10:56:40;94816.25;;;23.63;36.94
35892;BME280;21993;42.672;23.296;2023-05-07T11:01:55;94809.44;;;23.73;36.63
35892;BME280;21993;42.672;23.296;2023-05-07T11:04:23;94818.84;;;23.82;36.93
35892;BME280;21993;42.672;23.296;2023-05-07T11:15:07;94812.25;;;24.17;35.65
35892;BME280;21993;42.672;23.296;2023-05-07T11:17:33;94807.22;;;24.33;36.36
35892;BME280;21993;42.672;23.296;2023-05-07T11:20:02;94809.91;;;24.27;36.44
35892;BME280;21993;42.672;23.296;2023-05-07T11:24:56;94800.72;;;24.48;34.85
35892;BME280;21993;42.672;23.296;2023-05-07T11:27:26;94794.06;;;24.50;35.19
35892;BME280;21993;42.672;23.296;2023-05-07T11:29:52;94801.50;;;24.73;34.16
35892;BME280;21993;42.672;23.296;2023-05-07T11:32:31;94789.34;;;24.70;34.10
35892;BME280;21993;42.672;23.296;2023-05-07T11:35:00;94795.59;;;24.64;34.92
35892;BME280;21993;42.672;23.296;2023-05-07T11:37:27;94791.81;;;24.72;33.21
35892;BME280;21993;42.672;23.296;2023-05-07T11:40:05;94780.97;;;24.60;33.88
35892;BME280;21993;42.672;23.296;2023-05-07T11:42:36;94782.72;;;24.73;34.46
35892;BME280;21993;42.672;23.296;2023-05-07T11:45:06;94782.03;;;24.78;33.83
35892;BME280;21993;42.672;23.296;2023-05-07T11:47:32;94781.66;;;24.56;32.51
35892;BME280;21993;42.672;23.296;2023-05-07T11:50:02;94780.31;;;24.65;32.74
35892;BME280;21993;42.672;23.296;2023-05-07T11:52:29;94780.19;;;24.53;33.32
35892;BME280;21993;42.672;23.296;2023-05-07T11:54:57;94787.88;;;24.50;34.20
35892;BME280;21993;42.672;23.296;2023-05-07T11:57:23;94772.78;;;24.55;34.04
35892;BME280;21993;42.672;23.296;2023-05-07T11:59:53;94774.19;;;24.58;33.76
35892;BME280;21993;42.672;23.296;2023-05-07T12:02:19;94769.94;;;24.68;33.37
35892;BME280;21993;42.672;23.296;2023-05-07T12:04:44;94773.03;;;24.72;33.90
35892;BME280;21993;42.672;23.296;2023-05-07T12:07:16;94773.22;;;24.70;33.59
35892;BME280;21993;42.672;23.296;2023-05-07T12:09:47;94767.34;;;24.80;33.99
35892;BME280;21993;42.672;23.296;2023-05-07T12:12:13;94762.19;;;24.79;33.19
35892;BME280;21993;42.672;23.296;2023-05-07T12:14:45;94759.69;;;25.02;31.80
35892;BME280;21993;42.672;23.296;2023-05-07T12:17:12;94759.78;;;25.14;30.77
35892;BME280;21993;42.672;23.296;2023-05-07T12:19:39;94755.34;;;25.01;32.11
35892;BME280;21993;42.672;23.296;2023-05-07T12:22:07;94759.75;;;24.95;32.30
35892;BME280;21993;42.672;23.296;2023-05-07T12:24:49;94742.75;;;24.83;32.05
35892;BME280;21993;42.672;23.296;2023-05-07T12:27:15;94748.78;;;24.79;32.23
35892;BME280;21993;42.672;23.296;2023-05-07T12:29:46;94745.38;;;24.90;31.85
35892;BME280;21993;42.672;23.296;2023-05-07T12:32:19;94746.94;;;24.97;32.05
35892;BME280;21993;42.672;23.296;2023-05-07T12:34:46;94745.19;;;24.85;32.77
35892;BME280;21993;42.672;23.296;2023-05-07T12:37:12;94750.44;;;24.98;32.45
35892;BME280;21993;42.672;23.296;2023-05-07T12:39:43;94736.94;;;25.05;31.07
35892;BME280;21993;42.672;23.296;2023-05-07T12:42:15;94737.91;;;25.10;31.81
35892;BME280;21993;42.672;23.296;2023-05-07T12:44:41;94724.94;;;25.07;31.38
35892;BME280;21993;42.672;23.296;2023-05-07T12:47:07;94718.97;;;25.23;30.96
35892;BME280;21993;42.672;23.296;2023-05-07T12:49:34;94723.91;;;25.08;32.23
35892;BME280;21993;42.672;23.296;2023-05-07T12:52:01;94717.84;;;25.13;32.44
35892;BME280;21993;42.672;23.296;2023-05-07T12:54:31;94702.63;;;25.07;31.05
35892;BME280;21993;42.672;23.296;2023-05-07T12:57:09;94709.16;;;24.92;31.52
35892;BME280;21993;42.672;23.296;2023-05-07T12:59:40;94701.56;;;24.89;32.38
35892;BME280;21993;42.672;23.296;2023-05-07T13:02:06;94698.50;;;24.86;32.30
35892;BME280;21993;42.672;23.296;2023-05-07T13:04:32;94698.94;;;25.01;32.04
35892;BME280;21993;42.672;23.296;2023-05-07T13:06:58;94688.84;;;24.96;31.86
35892;BME280;21993;42.672;23.296;2023-05-07T13:09:24;94694.22;;;24.96;32.76